createdAt,value
2023-01-17T00:02:22.621Z,7.03
2023-01-17T00:05:09.088Z,6.78
2023-01-17T00:07:55.646Z,7.15
2023-01-17T00:10:25.864Z,7.65
2023-01-17T00:13:02.159Z,7.07
2023-01-17T00:15:32.222Z,7.53
2023-01-17T00:18:00.004Z,6.60
2023-01-17T00:20:49.250Z,7.82
2023-01-17T00:23:43.966Z,8.23
2023-01-17T00:26:18.197Z,18.95
2023-01-17T00:28:46.518Z,10.77
2023-01-17T00:31:17.952Z,8.50
2023-01-17T00:33:45.778Z,8.57
2023-01-17T00:36:13.676Z,6.82
2023-01-17T00:38:41.340Z,9.15
2023-01-17T00:41:11.892Z,7.03
2023-01-17T00:43:58.849Z,7.20
2023-01-17T00:46:44.968Z,7.88
2023-01-17T00:49:31.514Z,6.43
2023-01-17T00:52:17.766Z,7.18
2023-01-17T00:55:03.886Z,7.40
2023-01-17T00:57:50.529Z,6.88
2023-01-17T01:00:37.510Z,7.93
2023-01-17T01:03:28.805Z,7.70
2023-01-17T01:06:14.969Z,7.78
2023-01-17T01:09:01.238Z,7.82
2023-01-17T01:11:47.559Z,8.18
2023-01-17T01:14:33.828Z,8.13
2023-01-17T01:17:19.981Z,8.18
2023-01-17T01:20:06.117Z,7.57
2023-01-17T01:22:52.476Z,7.55
2023-01-17T01:25:38.500Z,8.70
2023-01-17T01:28:30.719Z,9.05
2023-01-17T01:31:21.355Z,9.57
2023-01-17T01:33:50.825Z,8.75
2023-01-17T01:36:19.829Z,9.40
2023-01-17T01:38:47.578Z,9.65
2023-01-17T01:41:15.123Z,9.20
2023-01-17T01:43:51.531Z,9.27
2023-01-17T01:46:32.103Z,9.13
2023-01-17T01:49:05.176Z,8.48
2023-01-17T01:51:41.576Z,8.02
2023-01-17T01:54:20.617Z,8.93
2023-01-17T01:56:50.141Z,8.43
2023-01-17T01:59:21.310Z,11.35
2023-01-17T02:01:51.566Z,9.20
2023-01-17T02:04:21.232Z,8.93
2023-01-17T02:09:22.151Z,11.25
2023-01-17T02:11:50.365Z,10.15
2023-01-17T02:14:19.835Z,11.05
2023-01-17T02:17:06.099Z,11.80
2023-01-17T02:20:21.614Z,10.80
2023-01-17T02:23:20.069Z,11.02
2023-01-17T02:26:05.786Z,10.10
2023-01-17T02:29:05.914Z,8.88
2023-01-17T02:31:47.349Z,10.43
2023-01-17T02:34:15.244Z,10.30
2023-01-17T02:36:49.853Z,10.35
2023-01-17T02:39:21.976Z,10.38
2023-01-17T02:42:02.523Z,10.27
2023-01-17T02:44:30.243Z,9.93
2023-01-17T02:46:59.370Z,9.57
2023-01-17T02:49:30.435Z,11.32
2023-01-17T02:52:18.839Z,11.45
2023-01-17T02:55:17.129Z,10.07
2023-01-17T02:57:59.772Z,10.48
2023-01-17T03:00:42.634Z,11.23
2023-01-17T03:03:31.228Z,10.88
2023-01-17T03:06:13.813Z,10.60
2023-01-17T03:08:47.503Z,10.55
2023-01-17T03:11:16.627Z,11.02
2023-01-17T03:13:44.549Z,10.77
2023-01-17T03:16:19.690Z,8.95
2023-01-17T03:18:47.499Z,9.93
2023-01-17T03:21:15.338Z,11.23
2023-01-17T03:23:44.283Z,9.65
2023-01-17T03:26:11.782Z,9.75
2023-01-17T03:28:39.657Z,10.23
2023-01-17T03:31:07.298Z,10.40
2023-01-17T03:33:35.589Z,11.45
2023-01-17T03:38:33.461Z,10.40
2023-01-17T03:41:00.950Z,9.65
2023-01-17T03:43:28.584Z,11.05
2023-01-17T03:46:07.414Z,10.60
2023-01-17T03:48:35.175Z,11.07
2023-01-17T03:51:02.747Z,10.77
2023-01-17T03:53:30.508Z,12.23
2023-01-17T03:55:58.051Z,11.20
2023-01-17T03:58:26.085Z,11.15
2023-01-17T04:00:53.923Z,10.02
2023-01-17T04:03:22.409Z,11.40
2023-01-17T04:05:52.024Z,11.45
2023-01-17T04:08:19.803Z,11.23
2023-01-17T04:10:47.492Z,11.60
2023-01-17T04:13:16.797Z,14.25
2023-01-17T04:15:46.205Z,14.20
2023-01-17T04:18:14.041Z,12.30
2023-01-17T04:20:41.587Z,11.55
2023-01-17T04:23:09.316Z,13.95
2023-01-17T04:25:37.277Z,9.80
2023-01-17T04:28:05.200Z,9.15
2023-01-17T04:30:33.594Z,9.63
2023-01-17T04:33:01.141Z,9.55
2023-01-17T04:35:33.565Z,8.20
2023-01-17T04:38:01.356Z,8.82
2023-01-17T04:40:29.701Z,8.77
2023-01-17T04:42:58.307Z,9.07
2023-01-17T04:45:26.029Z,8.98
2023-01-17T04:47:53.730Z,8.75
2023-01-17T04:50:21.267Z,8.48
2023-01-17T04:52:48.845Z,10.15
2023-01-17T04:55:16.441Z,11.75
2023-01-17T04:57:43.954Z,13.00
2023-01-17T05:00:12.098Z,12.65
2023-01-17T05:02:40.360Z,12.77
2023-01-17T05:05:08.867Z,13.50
2023-01-17T05:07:36.638Z,13.23
2023-01-17T05:10:04.690Z,13.68
2023-01-17T05:12:32.421Z,14.43
2023-01-17T05:15:00.461Z,11.57
2023-01-17T05:17:28.078Z,12.02
2023-01-17T05:19:55.653Z,11.60
2023-01-17T05:22:23.181Z,11.00
2023-01-17T05:24:50.714Z,10.23
2023-01-17T05:27:18.318Z,10.23
2023-01-17T05:29:45.947Z,10.60
2023-01-17T05:32:13.487Z,9.77
2023-01-17T05:34:41.079Z,10.07
2023-01-17T05:37:08.677Z,9.90
2023-01-17T05:39:36.708Z,10.55
2023-01-17T05:42:05.141Z,11.00
2023-01-17T05:44:32.645Z,10.52
2023-01-17T05:47:00.549Z,11.32
2023-01-17T05:49:28.121Z,10.48
2023-01-17T05:51:55.888Z,10.35
2023-01-17T05:54:23.378Z,12.45
2023-01-17T05:56:50.959Z,12.95
2023-01-17T05:59:28.568Z,13.43
2023-01-17T06:02:03.880Z,13.18
2023-01-17T06:04:31.620Z,12.43
2023-01-17T06:06:59.134Z,11.82
2023-01-17T06:09:26.725Z,13.25
2023-01-17T06:11:54.244Z,12.30
2023-01-17T06:14:21.967Z,12.57
2023-01-17T06:16:50.069Z,13.00
2023-01-17T06:19:17.777Z,14.05
2023-01-17T06:21:45.294Z,13.05
2023-01-17T06:24:13.371Z,14.18
2023-01-17T06:26:43.829Z,13.57
2023-01-17T06:29:12.441Z,13.32
2023-01-17T06:31:40.273Z,12.93
2023-01-17T06:34:07.956Z,12.88
2023-01-17T06:36:35.503Z,12.85
2023-01-17T06:39:03.036Z,13.32
2023-01-17T06:41:31.033Z,14.55
2023-01-17T06:43:58.673Z,14.10
2023-01-17T06:46:26.267Z,13.80
2023-01-17T06:48:54.019Z,14.23
2023-01-17T06:51:21.864Z,14.50
2023-01-17T06:53:49.721Z,14.63
2023-01-17T06:56:17.236Z,13.88
2023-01-17T06:58:44.838Z,14.48
2023-01-17T07:01:13.572Z,14.80
2023-01-17T07:03:41.755Z,13.90
2023-01-17T07:06:09.657Z,14.90
2023-01-17T07:08:37.705Z,14.13
2023-01-17T07:11:10.447Z,15.55
2023-01-17T07:13:38.671Z,17.20
2023-01-17T07:16:08.215Z,15.10
2023-01-17T07:18:36.544Z,16.65
2023-01-17T07:21:04.514Z,16.00
2023-01-17T07:23:32.205Z,16.75
2023-01-17T07:26:00.871Z,15.05
2023-01-17T07:28:28.591Z,16.45
2023-01-17T07:30:56.611Z,16.30
2023-01-17T07:33:25.465Z,17.27
2023-01-17T07:35:56.031Z,16.38
2023-01-17T07:38:23.554Z,17.77
2023-01-17T07:40:51.107Z,17.45
2023-01-17T07:43:18.595Z,17.13
2023-01-17T07:45:51.122Z,17.80
2023-01-17T07:48:20.700Z,17.23
2023-01-17T07:51:00.864Z,16.35
2023-01-17T07:53:31.373Z,16.60
2023-01-17T07:56:07.643Z,17.10
2023-01-17T07:58:36.444Z,17.70
2023-01-17T08:01:13.460Z,17.55
2023-01-17T08:03:41.539Z,17.75
2023-01-17T08:06:18.637Z,17.83
2023-01-17T08:08:47.501Z,16.67
2023-01-17T08:11:15.558Z,18.27
2023-01-17T12:35:17.056Z,22.27
2023-01-17T12:38:00.256Z,24.05
2023-01-17T12:40:49.683Z,24.45
2023-01-17T12:43:33.084Z,23.67
2023-01-17T12:46:07.633Z,22.75
2023-01-17T12:48:39.370Z,24.50
2023-01-17T12:51:09.422Z,23.13
2023-01-17T12:53:44.198Z,23.10
2023-01-17T12:56:25.189Z,22.65
2023-01-17T12:59:07.677Z,23.00
2023-01-17T13:01:43.324Z,21.55
2023-01-17T13:04:28.162Z,20.27
2023-01-17T13:06:58.731Z,21.15
2023-01-17T13:09:39.797Z,21.08
2023-01-17T13:12:14.464Z,20.00
2023-01-17T13:14:47.126Z,20.70
2023-01-17T13:17:52.109Z,19.85
2023-01-17T13:20:31.810Z,18.55
2023-01-17T13:23:23.742Z,18.42
2023-01-17T13:25:51.495Z,18.90
2023-01-17T13:28:33.808Z,19.48
2023-01-17T13:31:05.645Z,19.42
2023-01-17T13:34:02.779Z,21.00
2023-01-17T13:37:09.388Z,25.98
2023-01-17T13:40:01.292Z,20.13
2023-01-17T13:42:41.309Z,20.02
2023-01-17T13:45:18.172Z,20.63
2023-01-17T13:47:45.745Z,24.05
2023-01-17T13:50:36.240Z,19.55
2023-01-17T13:53:28.968Z,19.58
2023-01-17T13:56:19.857Z,18.58
2023-01-17T13:58:50.660Z,19.67
2023-01-17T14:01:22.144Z,17.45
2023-01-17T14:03:50.305Z,18.75
2023-01-17T14:06:36.450Z,18.95
2023-01-17T14:09:13.107Z,17.95
2023-01-17T14:11:56.474Z,18.85
2023-01-17T14:14:42.923Z,18.80
2023-01-17T14:17:16.316Z,17.92
2023-01-17T14:19:51.078Z,18.90
2023-01-17T14:22:18.595Z,19.45
2023-01-17T14:25:20.095Z,18.33
2023-01-17T14:27:54.551Z,18.77
2023-01-17T14:30:32.993Z,20.02
2023-01-17T14:33:04.853Z,19.13
2023-01-17T14:35:38.713Z,19.67
2023-01-17T14:38:23.118Z,19.55
2023-01-17T14:40:57.976Z,21.02
2023-01-17T14:43:28.765Z,19.05
2023-01-17T14:46:02.473Z,19.58
2023-01-17T14:48:31.073Z,19.08
2023-01-17T14:51:02.135Z,20.60
2023-01-17T14:53:34.000Z,19.90
2023-01-17T14:56:15.824Z,20.00
2023-01-17T14:58:46.578Z,19.40
2023-01-17T15:01:18.902Z,19.83
2023-01-17T15:03:52.883Z,21.17
2023-01-17T15:06:34.463Z,18.95
2023-01-17T15:09:09.390Z,19.90
2023-01-17T15:11:37.614Z,20.20
2023-01-17T15:14:07.125Z,20.00
2023-01-17T15:19:12.820Z,19.80
2023-01-17T15:21:43.364Z,20.20
2023-01-17T15:24:25.452Z,19.63
2023-01-17T15:26:53.382Z,22.23
2023-01-17T15:29:26.769Z,21.38
2023-01-17T15:32:00.498Z,19.73
2023-01-17T15:34:44.437Z,20.17
2023-01-17T15:37:23.250Z,19.27
2023-01-17T15:39:50.871Z,20.43
2023-01-17T15:42:25.853Z,20.40
2023-01-17T15:44:59.859Z,19.75
2023-01-17T15:47:37.648Z,20.13
2023-01-17T15:50:20.539Z,20.55
2023-01-17T15:52:57.779Z,21.73
2023-01-17T15:55:34.837Z,22.40
2023-01-17T15:58:04.133Z,21.70
2023-01-17T16:00:39.338Z,21.60
2023-01-17T16:03:26.602Z,21.25
2023-01-17T16:05:57.776Z,21.80
2023-01-17T16:08:31.280Z,21.42
2023-01-17T16:11:02.491Z,21.27
2023-01-17T16:13:43.439Z,20.77
2023-01-17T16:16:16.220Z,20.40
2023-01-17T16:18:46.638Z,19.23
2023-01-17T16:21:23.932Z,20.27
2023-01-17T16:23:52.219Z,19.10
2023-01-17T16:26:20.042Z,18.83
2023-01-17T16:28:48.121Z,19.40
2023-01-17T16:31:16.730Z,19.08
2023-01-17T16:33:52.326Z,17.80
2023-01-17T16:36:21.300Z,19.27
2023-01-17T16:41:18.469Z,17.95
2023-01-17T16:43:46.094Z,18.83
2023-01-17T16:46:16.902Z,19.05
2023-01-17T16:48:46.747Z,17.83
2023-01-17T16:51:14.392Z,17.77
2023-01-17T16:53:42.034Z,19.55
2023-01-17T16:56:16.961Z,23.05
2023-01-17T16:58:44.904Z,21.65
2023-01-17T17:01:17.109Z,18.85
2023-01-17T17:03:49.017Z,20.48
2023-01-17T17:06:19.671Z,19.08
2023-01-17T17:08:47.787Z,19.33
2023-01-17T17:11:21.455Z,19.05
2023-01-17T17:13:50.800Z,19.80
2023-01-17T17:16:21.862Z,18.38
2023-01-17T17:18:58.567Z,19.65
2023-01-17T17:21:27.492Z,20.48
2023-01-17T17:24:03.468Z,19.95
2023-01-17T17:26:37.305Z,19.33
2023-01-17T17:29:10.549Z,19.90
2023-01-17T17:31:41.169Z,18.45
2023-01-17T17:36:42.148Z,18.55
2023-01-17T17:39:17.157Z,18.83
2023-01-17T17:41:45.968Z,19.67
2023-01-17T17:44:13.702Z,20.48
2023-01-17T17:46:43.005Z,19.42
2023-01-17T17:49:10.625Z,17.85
2023-01-17T17:51:39.862Z,19.70
2023-01-17T17:54:10.299Z,19.65
2023-01-17T17:56:38.793Z,20.48
2023-01-17T17:59:09.101Z,18.85
2023-01-17T18:01:38.397Z,18.77
2023-01-17T18:04:09.409Z,19.98
2023-01-17T18:06:38.671Z,20.55
2023-01-17T18:09:08.137Z,22.27
2023-01-17T18:11:40.616Z,18.80
2023-01-17T18:14:12.764Z,18.95
2023-01-17T18:16:43.252Z,19.58
2023-01-17T18:19:19.769Z,18.38
2023-01-17T18:21:58.201Z,19.90
2023-01-17T18:24:27.649Z,18.40
2023-01-17T18:26:57.668Z,18.80
2023-01-17T18:29:29.167Z,18.52
2023-01-17T18:31:56.996Z,17.38
2023-01-17T18:34:31.504Z,17.58
2023-01-17T18:39:42.830Z,17.30
2023-01-17T18:42:11.962Z,16.95
2023-01-17T18:44:39.522Z,16.73
2023-01-17T18:47:07.187Z,17.77
2023-01-17T18:49:35.147Z,17.58
2023-01-17T18:52:03.113Z,16.90
2023-01-17T18:54:32.004Z,18.00
2023-01-17T18:56:59.612Z,18.00
2023-01-17T18:59:28.055Z,17.70
2023-01-17T19:01:56.035Z,17.52
2023-01-17T19:04:23.633Z,18.27
2023-01-17T19:06:51.309Z,17.65
2023-01-17T19:09:19.524Z,18.02
2023-01-17T19:11:47.679Z,16.92
2023-01-17T19:14:15.905Z,18.13
2023-01-17T19:16:44.253Z,18.10
2023-01-17T19:19:15.101Z,17.67
2023-01-17T19:21:43.651Z,17.92
2023-01-17T19:24:13.330Z,17.45
2023-01-17T19:26:42.089Z,16.88
2023-01-17T19:29:10.478Z,17.48
2023-01-17T19:31:42.977Z,18.40
2023-01-17T19:34:14.288Z,17.92
2023-01-17T19:36:42.476Z,18.05
2023-01-17T19:39:10.615Z,17.27
2023-01-17T19:44:14.040Z,17.20
2023-01-17T19:46:41.679Z,17.27
2023-01-17T19:49:09.875Z,18.10
2023-01-17T19:51:37.543Z,18.48
2023-01-17T19:54:06.618Z,18.30
2023-01-17T19:56:34.532Z,18.95
2023-01-17T19:59:02.483Z,17.00
2023-01-17T20:01:33.400Z,18.67
2023-01-17T20:04:03.252Z,18.10
2023-01-17T20:06:35.404Z,18.40
2023-01-17T20:09:04.509Z,20.85
2023-01-17T20:11:33.252Z,28.95
2023-01-17T20:14:01.340Z,24.55
2023-01-17T20:16:31.168Z,19.13
2023-01-17T20:21:29.139Z,20.20
2023-01-17T20:23:58.698Z,20.60
2023-01-17T20:26:34.531Z,18.20
2023-01-17T20:29:10.373Z,18.35
2023-01-17T20:31:40.546Z,21.17
2023-01-17T20:34:10.823Z,19.52
2023-01-17T20:36:40.597Z,22.60
2023-01-17T20:39:09.353Z,20.15
2023-01-17T20:41:42.259Z,21.02
2023-01-17T20:44:15.520Z,21.40
2023-01-17T20:46:43.507Z,19.92
2023-01-17T20:49:16.913Z,19.05
2023-01-17T20:51:46.218Z,20.15
2023-01-17T20:54:30.656Z,19.33
2023-01-17T20:56:58.264Z,20.05
2023-01-17T20:59:25.830Z,19.48
2023-01-17T21:01:53.538Z,18.77
2023-01-17T21:04:25.832Z,18.95
2023-01-17T21:06:53.563Z,19.70
2023-01-17T21:09:22.068Z,18.13
2023-01-17T21:11:50.566Z,18.50
2023-01-17T21:14:18.224Z,18.08
2023-01-17T21:16:46.032Z,17.70
2023-01-17T21:19:15.038Z,17.55
2023-01-17T21:21:42.575Z,16.77
2023-01-17T21:24:10.228Z,17.50
2023-01-17T21:26:38.982Z,18.65
2023-01-17T21:29:07.220Z,17.67
2023-01-17T21:31:36.725Z,16.88
2023-01-17T21:34:07.315Z,17.42
2023-01-17T21:36:37.467Z,17.48
2023-01-17T21:39:13.107Z,17.00
2023-01-17T21:41:41.540Z,16.73
2023-01-17T21:44:14.778Z,17.67
2023-01-17T21:46:42.828Z,17.23
2023-01-17T21:49:12.017Z,16.80
2023-01-17T21:51:52.761Z,18.33
2023-01-17T21:54:41.503Z,16.45
2023-01-17T22:01:17.914Z,16.75
2023-01-17T22:03:49.872Z,16.90
2023-01-17T22:06:18.692Z,17.15
2023-01-17T22:08:46.646Z,16.75
2023-01-17T22:11:16.819Z,17.73
2023-01-17T22:13:45.493Z,16.92
2023-01-17T22:16:15.868Z,16.77
2023-01-17T22:18:45.077Z,18.00
2023-01-17T22:21:15.659Z,19.00
2023-01-17T22:23:48.743Z,17.65
2023-01-17T22:26:16.673Z,18.45
2023-01-17T22:28:44.442Z,17.70
2023-01-17T22:31:21.524Z,16.98
2023-01-17T22:34:01.984Z,17.80
2023-01-17T22:36:32.223Z,17.75
2023-01-17T22:39:00.535Z,17.50
2023-01-17T22:41:34.726Z,18.42
2023-01-17T22:44:02.959Z,16.67
2023-01-17T22:46:32.684Z,16.83
2023-01-17T22:49:00.457Z,17.55
2023-01-17T22:51:29.405Z,18.30
2023-01-17T22:53:59.252Z,16.77
2023-01-17T22:56:29.554Z,17.40
2023-01-17T22:59:03.267Z,17.13
2023-01-17T23:01:33.008Z,17.02
2023-01-17T23:04:02.937Z,17.00
2023-01-17T23:06:38.184Z,16.60
2023-01-17T23:09:13.428Z,16.95
2023-01-17T23:11:43.305Z,16.42
2023-01-17T23:14:19.177Z,17.05
2023-01-17T23:17:07.147Z,17.38
2023-01-17T23:19:38.074Z,15.77
2023-01-17T23:22:21.522Z,16.50
2023-01-17T23:24:59.043Z,16.85
2023-01-17T23:27:52.166Z,17.77
2023-01-17T23:30:40.597Z,16.20
2023-01-17T23:33:10.633Z,16.13
2023-01-17T23:35:42.072Z,15.50
2023-01-17T23:38:29.261Z,17.52
2023-01-17T23:41:25.150Z,15.68
2023-01-17T23:43:54.002Z,15.40
2023-01-17T23:46:24.586Z,16.38
2023-01-17T23:48:52.730Z,16.30
2023-01-17T23:51:20.740Z,15.65
2023-01-17T23:53:55.250Z,16.25
2023-01-17T23:56:24.853Z,16.80
2023-01-17T23:58:52.428Z,16.70
